sensor_id;sensor_type;location;lat;lon;timestamp;P1;durP1;ratioP1;P2;durP2;ratioP2
12212;SDS011;6169;44.158;22.788;2022-08-27T00:04:16;24.55;;;8.25;;
12212;SDS011;6169;44.158;22.788;2022-08-27T00:09:20;11.45;;;7.88;;
12212;SDS011;6169;44.158;22.788;2022-08-27T00:14:23;17.23;;;9.18;;
12212;SDS011;6169;44.158;22.788;2022-08-27T00:19:27;16.65;;;8.38;;
12212;SDS011;6169;44.158;22.788;2022-08-27T00:24:31;18.20;;;8.00;;
12212;SDS011;6169;44.158;22.788;2022-08-27T00:29:33;17.35;;;8.18;;
12212;SDS011;6169;44.158;22.788;2022-08-27T00:34:36;17.73;;;9.10;;
12212;SDS011;6169;44.158;22.788;2022-08-27T00:39:39;14.52;;;9.15;;
12212;SDS011;6169;44.158;22.788;2022-08-27T00:44:41;15.20;;;8.13;;
12212;SDS011;6169;44.158;22.788;2022-08-27T00:49:45;16.55;;;9.63;;
12212;SDS011;6169;44.158;22.788;2022-08-27T00:54:59;22.33;;;10.80;;
12212;SDS011;6169;44.158;22.788;2022-08-27T01:00:07;18.33;;;9.25;;
12212;SDS011;6169;44.158;22.788;2022-08-27T01:05:14;17.15;;;10.18;;
12212;SDS011;6169;44.158;22.788;2022-08-27T01:10:22;20.85;;;9.65;;
12212;SDS011;6169;44.158;22.788;2022-08-27T01:15:27;22.23;;;10.52;;
12212;SDS011;6169;44.158;22.788;2022-08-27T01:20:32;17.55;;;9.82;;
12212;SDS011;6169;44.158;22.788;2022-08-27T01:25:43;18.05;;;9.25;;
12212;SDS011;6169;44.158;22.788;2022-08-27T01:30:46;14.68;;;9.80;;
12212;SDS011;6169;44.158;22.788;2022-08-27T01:35:49;17.42;;;10.23;;
12212;SDS011;6169;44.158;22.788;2022-08-27T01:40:53;22.52;;;9.05;;
12212;SDS011;6169;44.158;22.788;2022-08-27T01:45:56;17.90;;;9.98;;
12212;SDS011;6169;44.158;22.788;2022-08-27T01:50:58;17.58;;;9.52;;
12212;SDS011;6169;44.158;22.788;2022-08-27T01:56:02;18.10;;;10.20;;
12212;SDS011;6169;44.158;22.788;2022-08-27T02:01:06;16.38;;;8.73;;
12212;SDS011;6169;44.158;22.788;2022-08-27T02:06:11;21.77;;;9.70;;
12212;SDS011;6169;44.158;22.788;2022-08-27T02:11:15;20.67;;;10.57;;
12212;SDS011;6169;44.158;22.788;2022-08-27T02:16:17;15.90;;;10.10;;
12212;SDS011;6169;44.158;22.788;2022-08-27T02:21:19;19.70;;;10.32;;
12212;SDS011;6169;44.158;22.788;2022-08-27T02:26:23;20.52;;;11.13;;
12212;SDS011;6169;44.158;22.788;2022-08-27T02:31:26;14.18;;;10.80;;
12212;SDS011;6169;44.158;22.788;2022-08-27T02:36:29;21.40;;;10.23;;
12212;SDS011;6169;44.158;22.788;2022-08-27T02:41:33;20.10;;;9.80;;
12212;SDS011;6169;44.158;22.788;2022-08-27T02:46:35;16.58;;;10.50;;
12212;SDS011;6169;44.158;22.788;2022-08-27T02:51:38;16.27;;;10.85;;
12212;SDS011;6169;44.158;22.788;2022-08-27T02:56:42;18.73;;;10.50;;
12212;SDS011;6169;44.158;22.788;2022-08-27T03:01:44;20.77;;;10.23;;
12212;SDS011;6169;44.158;22.788;2022-08-27T03:06:46;23.70;;;11.82;;
12212;SDS011;6169;44.158;22.788;2022-08-27T03:11:51;20.98;;;9.98;;
12212;SDS011;6169;44.158;22.788;2022-08-27T03:16:54;26.17;;;10.20;;
12212;SDS011;6169;44.158;22.788;2022-08-27T03:22:16;15.65;;;9.43;;
12212;SDS011;6169;44.158;22.788;2022-08-27T03:27:20;14.98;;;11.45;;
12212;SDS011;6169;44.158;22.788;2022-08-27T03:32:22;15.75;;;9.93;;
12212;SDS011;6169;44.158;22.788;2022-08-27T03:37:25;22.42;;;9.75;;
12212;SDS011;6169;44.158;22.788;2022-08-27T03:42:28;21.17;;;9.50;;
12212;SDS011;6169;44.158;22.788;2022-08-27T03:47:31;32.00;;;9.73;;
12212;SDS011;6169;44.158;22.788;2022-08-27T03:52:34;12.93;;;9.77;;
12212;SDS011;6169;44.158;22.788;2022-08-27T03:57:38;23.25;;;9.75;;
12212;SDS011;6169;44.158;22.788;2022-08-27T04:02:40;17.50;;;9.63;;
12212;SDS011;6169;44.158;22.788;2022-08-27T04:07:43;16.25;;;9.35;;
12212;SDS011;6169;44.158;22.788;2022-08-27T04:12:47;16.35;;;8.65;;
12212;SDS011;6169;44.158;22.788;2022-08-27T04:17:49;18.73;;;10.32;;
12212;SDS011;6169;44.158;22.788;2022-08-27T04:22:52;16.08;;;8.65;;
12212;SDS011;6169;44.158;22.788;2022-08-27T04:27:56;15.88;;;8.00;;
12212;SDS011;6169;44.158;22.788;2022-08-27T04:32:58;12.73;;;8.63;;
12212;SDS011;6169;44.158;22.788;2022-08-27T04:38:01;13.43;;;8.57;;
12212;SDS011;6169;44.158;22.788;2022-08-27T04:43:05;14.88;;;7.78;;
12212;SDS011;6169;44.158;22.788;2022-08-27T04:48:07;13.73;;;8.52;;
12212;SDS011;6169;44.158;22.788;2022-08-27T04:53:10;16.10;;;8.13;;
12212;SDS011;6169;44.158;22.788;2022-08-27T04:58:14;22.77;;;8.70;;
12212;SDS011;6169;44.158;22.788;2022-08-27T05:03:17;16.20;;;8.20;;
12212;SDS011;6169;44.158;22.788;2022-08-27T05:08:22;15.10;;;7.90;;
12212;SDS011;6169;44.158;22.788;2022-08-27T05:13:26;15.55;;;7.13;;
12212;SDS011;6169;44.158;22.788;2022-08-27T05:18:29;15.80;;;7.25;;
12212;SDS011;6169;44.158;22.788;2022-08-27T05:23:32;17.23;;;8.38;;
12212;SDS011;6169;44.158;22.788;2022-08-27T05:28:37;16.38;;;8.13;;
12212;SDS011;6169;44.158;22.788;2022-08-27T05:33:48;16.27;;;7.43;;
12212;SDS011;6169;44.158;22.788;2022-08-27T05:38:51;20.15;;;7.90;;
12212;SDS011;6169;44.158;22.788;2022-08-27T05:43:55;18.85;;;7.25;;
12212;SDS011;6169;44.158;22.788;2022-08-27T05:49:00;14.95;;;8.55;;
12212;SDS011;6169;44.158;22.788;2022-08-27T05:54:03;14.82;;;8.98;;
12212;SDS011;6169;44.158;22.788;2022-08-27T05:59:07;18.90;;;8.75;;
12212;SDS011;6169;44.158;22.788;2022-08-27T06:09:30;16.95;;;8.55;;
12212;SDS011;6169;44.158;22.788;2022-08-27T06:14:33;18.30;;;7.65;;
12212;SDS011;6169;44.158;22.788;2022-08-27T06:19:37;12.85;;;9.07;;
12212;SDS011;6169;44.158;22.788;2022-08-27T06:24:41;16.10;;;9.18;;
12212;SDS011;6169;44.158;22.788;2022-08-27T06:29:44;15.38;;;8.48;;
12212;SDS011;6169;44.158;22.788;2022-08-27T06:34:49;16.83;;;8.65;;
12212;SDS011;6169;44.158;22.788;2022-08-27T06:39:51;15.55;;;8.05;;
12212;SDS011;6169;44.158;22.788;2022-08-27T06:44:53;19.17;;;7.25;;
12212;SDS011;6169;44.158;22.788;2022-08-27T06:49:57;13.27;;;8.73;;
12212;SDS011;6169;44.158;22.788;2022-08-27T06:55:00;21.02;;;8.32;;
12212;SDS011;6169;44.158;22.788;2022-08-27T07:00:02;15.77;;;7.95;;
12212;SDS011;6169;44.158;22.788;2022-08-27T07:05:08;14.23;;;7.13;;
12212;SDS011;6169;44.158;22.788;2022-08-27T07:10:11;16.75;;;6.60;;
12212;SDS011;6169;44.158;22.788;2022-08-27T07:15:13;15.93;;;6.60;;
12212;SDS011;6169;44.158;22.788;2022-08-27T07:20:18;15.02;;;5.95;;
12212;SDS011;6169;44.158;22.788;2022-08-27T07:25:20;16.92;;;5.63;;
12212;SDS011;6169;44.158;22.788;2022-08-27T07:30:23;16.98;;;4.85;;
12212;SDS011;6169;44.158;22.788;2022-08-27T07:35:27;19.77;;;5.10;;
12212;SDS011;6169;44.158;22.788;2022-08-27T07:40:31;20.60;;;5.63;;
12212;SDS011;6169;44.158;22.788;2022-08-27T07:45:33;19.77;;;5.72;;
12212;SDS011;6169;44.158;22.788;2022-08-27T07:50:37;21.25;;;6.38;;
12212;SDS011;6169;44.158;22.788;2022-08-27T07:55:39;15.20;;;5.65;;
12212;SDS011;6169;44.158;22.788;2022-08-27T08:00:42;17.77;;;4.90;;
12212;SDS011;6169;44.158;22.788;2022-08-27T08:05:47;15.65;;;5.88;;
12212;SDS011;6169;44.158;22.788;2022-08-27T08:10:54;16.85;;;5.40;;
12212;SDS011;6169;44.158;22.788;2022-08-27T08:15:57;15.38;;;5.78;;
12212;SDS011;6169;44.158;22.788;2022-08-27T08:21:02;20.90;;;6.35;;
12212;SDS011;6169;44.158;22.788;2022-08-27T08:26:07;25.48;;;5.93;;
12212;SDS011;6169;44.158;22.788;2022-08-27T08:31:10;21.23;;;5.93;;
12212;SDS011;6169;44.158;22.788;2022-08-27T08:36:14;16.10;;;5.45;;
12212;SDS011;6169;44.158;22.788;2022-08-27T08:46:45;18.25;;;5.88;;
12212;SDS011;6169;44.158;22.788;2022-08-27T08:51:52;16.98;;;5.95;;
12212;SDS011;6169;44.158;22.788;2022-08-27T08:57:00;11.07;;;6.03;;
12212;SDS011;6169;44.158;22.788;2022-08-27T09:02:07;17.07;;;6.03;;
12212;SDS011;6169;44.158;22.788;2022-08-27T09:07:16;14.15;;;6.22;;
12212;SDS011;6169;44.158;22.788;2022-08-27T09:12:35;11.18;;;4.80;;
12212;SDS011;6169;44.158;22.788;2022-08-27T09:17:37;17.20;;;5.50;;
12212;SDS011;6169;44.158;22.788;2022-08-27T09:22:45;14.40;;;6.15;;
12212;SDS011;6169;44.158;22.788;2022-08-27T09:27:54;20.60;;;6.30;;
12212;SDS011;6169;44.158;22.788;2022-08-27T09:32:59;17.20;;;6.10;;
12212;SDS011;6169;44.158;22.788;2022-08-27T09:38:05;18.67;;;6.18;;
12212;SDS011;6169;44.158;22.788;2022-08-27T09:43:08;17.38;;;5.68;;
12212;SDS011;6169;44.158;22.788;2022-08-27T09:48:23;15.60;;;5.30;;
12212;SDS011;6169;44.158;22.788;2022-08-27T09:53:29;15.02;;;5.28;;
12212;SDS011;6169;44.158;22.788;2022-08-27T09:58:45;16.65;;;6.25;;
12212;SDS011;6169;44.158;22.788;2022-08-27T10:04:01;19.80;;;5.68;;
12212;SDS011;6169;44.158;22.788;2022-08-27T10:09:07;16.60;;;4.88;;
12212;SDS011;6169;44.158;22.788;2022-08-27T10:14:15;13.50;;;5.28;;
12212;SDS011;6169;44.158;22.788;2022-08-27T10:19:29;14.38;;;5.95;;
12212;SDS011;6169;44.158;22.788;2022-08-27T10:24:41;16.52;;;5.50;;
12212;SDS011;6169;44.158;22.788;2022-08-27T10:29:57;11.57;;;4.60;;
12212;SDS011;6169;44.158;22.788;2022-08-27T10:35:06;66.50;;;54.60;;
12212;SDS011;6169;44.158;22.788;2022-08-27T10:40:18;24.15;;;7.05;;
12212;SDS011;6169;44.158;22.788;2022-08-27T10:45:29;16.05;;;6.78;;
12212;SDS011;6169;44.158;22.788;2022-08-27T10:50:43;11.73;;;4.60;;
12212;SDS011;6169;44.158;22.788;2022-08-27T10:55:51;14.07;;;6.90;;
12212;SDS011;6169;44.158;22.788;2022-08-27T11:00:59;10.07;;;5.10;;
12212;SDS011;6169;44.158;22.788;2022-08-27T11:06:09;11.85;;;4.63;;
12212;SDS011;6169;44.158;22.788;2022-08-27T11:11:24;14.70;;;4.93;;
12212;SDS011;6169;44.158;22.788;2022-08-27T11:16:33;13.45;;;3.67;;
12212;SDS011;6169;44.158;22.788;2022-08-27T11:21:42;12.23;;;4.00;;
12212;SDS011;6169;44.158;22.788;2022-08-27T11:26:50;13.60;;;5.53;;
12212;SDS011;6169;44.158;22.788;2022-08-27T11:31:58;11.88;;;2.60;;
12212;SDS011;6169;44.158;22.788;2022-08-27T11:37:29;7.72;;;3.17;;
12212;SDS011;6169;44.158;22.788;2022-08-27T11:42:46;16.70;;;4.05;;
12212;SDS011;6169;44.158;22.788;2022-08-27T11:47:52;16.10;;;4.80;;
12212;SDS011;6169;44.158;22.788;2022-08-27T11:52:58;13.23;;;3.33;;
12212;SDS011;6169;44.158;22.788;2022-08-27T11:58:05;12.27;;;3.35;;
12212;SDS011;6169;44.158;22.788;2022-08-27T12:03:21;9.98;;;3.35;;
12212;SDS011;6169;44.158;22.788;2022-08-27T12:08:27;12.23;;;3.55;;
12212;SDS011;6169;44.158;22.788;2022-08-27T12:13:36;13.23;;;3.93;;
12212;SDS011;6169;44.158;22.788;2022-08-27T12:18:45;10.65;;;3.65;;
12212;SDS011;6169;44.158;22.788;2022-08-27T12:24:07;17.95;;;4.35;;
12212;SDS011;6169;44.158;22.788;2022-08-27T12:29:28;13.85;;;4.45;;
12212;SDS011;6169;44.158;22.788;2022-08-27T12:34:41;13.55;;;3.95;;
12212;SDS011;6169;44.158;22.788;2022-08-27T12:39:45;11.43;;;4.50;;
12212;SDS011;6169;44.158;22.788;2022-08-27T12:44:54;12.55;;;3.70;;
12212;SDS011;6169;44.158;22.788;2022-08-27T12:49:57;13.30;;;3.53;;
12212;SDS011;6169;44.158;22.788;2022-08-27T12:55:04;13.40;;;4.22;;
12212;SDS011;6169;44.158;22.788;2022-08-27T13:00:17;11.45;;;4.00;;
12212;SDS011;6169;44.158;22.788;2022-08-27T13:05:20;11.13;;;4.07;;
12212;SDS011;6169;44.158;22.788;2022-08-27T13:10:25;11.98;;;3.75;;
12212;SDS011;6169;44.158;22.788;2022-08-27T13:15:31;10.32;;;3.65;;
12212;SDS011;6169;44.158;22.788;2022-08-27T13:20:35;15.68;;;4.55;;
12212;SDS011;6169;44.158;22.788;2022-08-27T13:25:39;10.02;;;3.67;;
12212;SDS011;6169;44.158;22.788;2022-08-27T13:30:44;12.60;;;3.30;;
12212;SDS011;6169;44.158;22.788;2022-08-27T13:35:48;11.23;;;4.22;;
12212;SDS011;6169;44.158;22.788;2022-08-27T13:40:53;9.57;;;4.07;;
12212;SDS011;6169;44.158;22.788;2022-08-27T13:45:59;20.40;;;4.80;;
12212;SDS011;6169;44.158;22.788;2022-08-27T13:51:06;10.85;;;4.25;;
12212;SDS011;6169;44.158;22.788;2022-08-27T13:56:09;11.52;;;4.05;;
12212;SDS011;6169;44.158;22.788;2022-08-27T14:01:13;7.97;;;3.53;;
12212;SDS011;6169;44.158;22.788;2022-08-27T14:06:24;20.20;;;5.32;;
12212;SDS011;6169;44.158;22.788;2022-08-27T14:11:31;11.40;;;3.97;;
12212;SDS011;6169;44.158;22.788;2022-08-27T14:16:35;13.55;;;3.88;;
12212;SDS011;6169;44.158;22.788;2022-08-27T14:21:39;14.70;;;3.90;;
12212;SDS011;6169;44.158;22.788;2022-08-27T14:26:47;10.20;;;3.78;;
12212;SDS011;6169;44.158;22.788;2022-08-27T14:31:51;15.80;;;4.35;;
12212;SDS011;6169;44.158;22.788;2022-08-27T14:36:54;10.85;;;4.05;;
12212;SDS011;6169;44.158;22.788;2022-08-27T14:41:56;9.68;;;3.80;;
12212;SDS011;6169;44.158;22.788;2022-08-27T14:47:00;10.25;;;3.60;;
12212;SDS011;6169;44.158;22.788;2022-08-27T14:52:03;19.38;;;5.05;;
12212;SDS011;6169;44.158;22.788;2022-08-27T14:57:07;11.05;;;4.45;;
12212;SDS011;6169;44.158;22.788;2022-08-27T15:02:11;11.13;;;4.43;;
12212;SDS011;6169;44.158;22.788;2022-08-27T15:07:14;8.65;;;3.88;;
12212;SDS011;6169;44.158;22.788;2022-08-27T15:12:18;10.45;;;4.20;;
12212;SDS011;6169;44.158;22.788;2022-08-27T15:17:22;13.10;;;4.55;;
12212;SDS011;6169;44.158;22.788;2022-08-27T15:22:25;8.70;;;4.93;;
12212;SDS011;6169;44.158;22.788;2022-08-27T15:27:33;8.95;;;5.60;;
12212;SDS011;6169;44.158;22.788;2022-08-27T15:32:39;11.60;;;4.65;;
12212;SDS011;6169;44.158;22.788;2022-08-27T15:37:43;13.75;;;4.43;;
12212;SDS011;6169;44.158;22.788;2022-08-27T15:42:46;15.27;;;4.65;;
12212;SDS011;6169;44.158;22.788;2022-08-27T15:47:55;9.30;;;4.28;;
12212;SDS011;6169;44.158;22.788;2022-08-27T15:52:58;119.88;;;16.70;;
12212;SDS011;6169;44.158;22.788;2022-08-27T15:58:02;8.32;;;4.20;;
12212;SDS011;6169;44.158;22.788;2022-08-27T16:03:08;11.57;;;4.45;;
12212;SDS011;6169;44.158;22.788;2022-08-27T16:08:13;11.75;;;5.10;;
12212;SDS011;6169;44.158;22.788;2022-08-27T16:13:16;11.32;;;5.43;;
12212;SDS011;6169;44.158;22.788;2022-08-27T16:18:21;12.85;;;5.25;;
12212;SDS011;6169;44.158;22.788;2022-08-27T16:23:27;8.45;;;4.95;;
12212;SDS011;6169;44.158;22.788;2022-08-27T16:28:30;13.30;;;6.65;;
12212;SDS011;6169;44.158;22.788;2022-08-27T16:33:34;11.65;;;5.85;;
12212;SDS011;6169;44.158;22.788;2022-08-27T16:38:37;20.95;;;6.03;;
12212;SDS011;6169;44.158;22.788;2022-08-27T16:43:39;10.32;;;6.25;;
12212;SDS011;6169;44.158;22.788;2022-08-27T16:48:44;11.10;;;6.95;;
12212;SDS011;6169;44.158;22.788;2022-08-27T16:54:03;15.95;;;6.82;;
12212;SDS011;6169;44.158;22.788;2022-08-27T16:59:07;23.58;;;7.45;;
12212;SDS011;6169;44.158;22.788;2022-08-27T17:04:13;12.13;;;6.18;;
12212;SDS011;6169;44.158;22.788;2022-08-27T17:09:16;14.48;;;7.55;;
12212;SDS011;6169;44.158;22.788;2022-08-27T17:14:19;115.78;;;19.90;;
12212;SDS011;6169;44.158;22.788;2022-08-27T17:19:23;45.08;;;10.98;;
12212;SDS011;6169;44.158;22.788;2022-08-27T17:24:25;14.43;;;8.63;;
12212;SDS011;6169;44.158;22.788;2022-08-27T17:29:28;21.88;;;9.18;;
12212;SDS011;6169;44.158;22.788;2022-08-27T17:34:31;48.95;;;12.10;;
12212;SDS011;6169;44.158;22.788;2022-08-27T17:39:34;314.60;;;56.45;;
12212;SDS011;6169;44.158;22.788;2022-08-27T17:44:36;393.90;;;80.63;;
12212;SDS011;6169;44.158;22.788;2022-08-27T17:49:40;132.45;;;27.92;;
12212;SDS011;6169;44.158;22.788;2022-08-27T17:54:43;82.82;;;20.48;;
12212;SDS011;6169;44.158;22.788;2022-08-27T17:59:47;59.97;;;15.98;;
12212;SDS011;6169;44.158;22.788;2022-08-27T18:04:52;59.47;;;16.80;;
12212;SDS011;6169;44.158;22.788;2022-08-27T18:09:55;34.63;;;12.85;;
12212;SDS011;6169;44.158;22.788;2022-08-27T18:14:58;28.60;;;10.38;;
12212;SDS011;6169;44.158;22.788;2022-08-27T18:20:08;28.05;;;11.68;;
12212;SDS011;6169;44.158;22.788;2022-08-27T18:25:12;32.00;;;11.68;;
12212;SDS011;6169;44.158;22.788;2022-08-27T18:30:14;83.10;;;22.17;;
12212;SDS011;6169;44.158;22.788;2022-08-27T18:35:19;80.68;;;17.63;;
12212;SDS011;6169;44.158;22.788;2022-08-27T18:40:24;64.88;;;14.35;;
12212;SDS011;6169;44.158;22.788;2022-08-27T18:45:28;77.07;;;14.52;;
12212;SDS011;6169;44.158;22.788;2022-08-27T18:50:33;66.63;;;14.73;;
12212;SDS011;6169;44.158;22.788;2022-08-27T18:55:36;55.25;;;12.68;;
12212;SDS011;6169;44.158;22.788;2022-08-27T19:00:39;72.05;;;30.92;;
12212;SDS011;6169;44.158;22.788;2022-08-27T19:05:44;49.60;;;14.30;;
12212;SDS011;6169;44.158;22.788;2022-08-27T19:10:47;41.53;;;11.52;;
12212;SDS011;6169;44.158;22.788;2022-08-27T19:15:50;46.85;;;12.52;;
12212;SDS011;6169;44.158;22.788;2022-08-27T19:21:02;64.15;;;13.98;;
12212;SDS011;6169;44.158;22.788;2022-08-27T19:26:06;42.30;;;12.00;;
12212;SDS011;6169;44.158;22.788;2022-08-27T19:31:15;33.13;;;11.98;;
12212;SDS011;6169;44.158;22.788;2022-08-27T19:36:19;32.38;;;13.85;;
12212;SDS011;6169;44.158;22.788;2022-08-27T19:41:22;29.23;;;13.07;;
12212;SDS011;6169;44.158;22.788;2022-08-27T19:46:24;38.58;;;16.50;;
12212;SDS011;6169;44.158;22.788;2022-08-27T19:51:29;52.25;;;15.55;;
12212;SDS011;6169;44.158;22.788;2022-08-27T19:56:32;33.45;;;14.52;;
12212;SDS011;6169;44.158;22.788;2022-08-27T20:01:34;39.97;;;15.13;;
12212;SDS011;6169;44.158;22.788;2022-08-27T20:06:38;36.00;;;15.60;;
12212;SDS011;6169;44.158;22.788;2022-08-27T20:11:41;36.15;;;15.07;;
12212;SDS011;6169;44.158;22.788;2022-08-27T20:16:45;37.35;;;12.90;;
12212;SDS011;6169;44.158;22.788;2022-08-27T20:21:49;30.33;;;13.60;;
12212;SDS011;6169;44.158;22.788;2022-08-27T20:26:52;30.33;;;12.50;;
12212;SDS011;6169;44.158;22.788;2022-08-27T20:31:56;25.95;;;12.57;;
12212;SDS011;6169;44.158;22.788;2022-08-27T20:37:01;26.83;;;11.80;;
12212;SDS011;6169;44.158;22.788;2022-08-27T20:42:04;24.77;;;11.82;;
12212;SDS011;6169;44.158;22.788;2022-08-27T20:47:06;39.85;;;16.45;;
12212;SDS011;6169;44.158;22.788;2022-08-27T20:52:12;44.78;;;24.13;;
12212;SDS011;6169;44.158;22.788;2022-08-27T20:57:14;53.67;;;26.17;;
12212;SDS011;6169;44.158;22.788;2022-08-27T21:02:19;54.15;;;28.17;;
12212;SDS011;6169;44.158;22.788;2022-08-27T21:07:24;32.03;;;15.27;;
12212;SDS011;6169;44.158;22.788;2022-08-27T21:12:27;30.40;;;14.50;;
12212;SDS011;6169;44.158;22.788;2022-08-27T21:17:30;16.70;;;10.85;;
12212;SDS011;6169;44.158;22.788;2022-08-27T21:22:34;25.35;;;11.35;;
12212;SDS011;6169;44.158;22.788;2022-08-27T21:27:36;25.50;;;11.75;;
12212;SDS011;6169;44.158;22.788;2022-08-27T21:32:39;28.38;;;18.58;;
12212;SDS011;6169;44.158;22.788;2022-08-27T21:37:43;43.97;;;22.30;;
12212;SDS011;6169;44.158;22.788;2022-08-27T21:42:47;31.27;;;18.70;;
12212;SDS011;6169;44.158;22.788;2022-08-27T21:47:49;36.47;;;18.63;;
12212;SDS011;6169;44.158;22.788;2022-08-27T21:52:54;29.95;;;16.88;;
12212;SDS011;6169;44.158;22.788;2022-08-27T21:57:57;25.52;;;13.05;;
12212;SDS011;6169;44.158;22.788;2022-08-27T22:02:59;21.35;;;11.15;;
12212;SDS011;6169;44.158;22.788;2022-08-27T22:08:03;22.80;;;13.05;;
12212;SDS011;6169;44.158;22.788;2022-08-27T22:13:05;22.38;;;14.48;;
12212;SDS011;6169;44.158;22.788;2022-08-27T22:18:08;24.38;;;15.82;;
12212;SDS011;6169;44.158;22.788;2022-08-27T22:23:12;21.65;;;13.32;;
12212;SDS011;6169;44.158;22.788;2022-08-27T22:28:15;24.67;;;14.95;;
12212;SDS011;6169;44.158;22.788;2022-08-27T22:33:18;21.60;;;14.93;;
12212;SDS011;6169;44.158;22.788;2022-08-27T22:38:22;24.70;;;14.70;;
12212;SDS011;6169;44.158;22.788;2022-08-27T22:43:24;22.65;;;13.98;;
12212;SDS011;6169;44.158;22.788;2022-08-27T22:48:26;22.88;;;12.25;;
12212;SDS011;6169;44.158;22.788;2022-08-27T22:53:30;18.33;;;12.48;;
12212;SDS011;6169;44.158;22.788;2022-08-27T22:58:32;21.05;;;11.55;;
12212;SDS011;6169;44.158;22.788;2022-08-27T23:03:34;21.30;;;11.68;;
12212;SDS011;6169;44.158;22.788;2022-08-27T23:08:38;23.10;;;12.68;;
12212;SDS011;6169;44.158;22.788;2022-08-27T23:13:41;18.30;;;11.10;;
12212;SDS011;6169;44.158;22.788;2022-08-27T23:18:44;18.38;;;11.77;;
12212;SDS011;6169;44.158;22.788;2022-08-27T23:23:48;17.58;;;12.02;;
12212;SDS011;6169;44.158;22.788;2022-08-27T23:28:50;23.95;;;12.20;;
12212;SDS011;6169;44.158;22.788;2022-08-27T23:33:54;14.57;;;10.43;;
12212;SDS011;6169;44.158;22.788;2022-08-27T23:38:58;14.07;;;10.55;;
12212;SDS011;6169;44.158;22.788;2022-08-27T23:44:00;17.48;;;10.75;;
12212;SDS011;6169;44.158;22.788;2022-08-27T23:49:03;17.92;;;10.85;;
12212;SDS011;6169;44.158;22.788;2022-08-27T23:54:07;14.48;;;10.38;;
12212;SDS011;6169;44.158;22.788;2022-08-27T23:59:09;15.10;;;10.68;;
